createdAt,value
2023-05-01T00:01:34.400Z,53.46
2023-05-01T00:04:01.743Z,52.99
2023-05-01T00:06:28.732Z,53.63
2023-05-01T00:08:56.065Z,54.44
2023-05-01T00:11:23.430Z,55.54
2023-05-01T00:13:50.814Z,56.47
2023-05-01T00:16:18.908Z,57.21
2023-05-01T00:18:45.986Z,58.11
2023-05-01T00:21:12.986Z,59.00
2023-05-01T00:23:40.234Z,59.74
2023-05-01T00:26:08.463Z,60.44
2023-05-01T00:28:35.427Z,60.92
2023-05-01T00:31:02.803Z,61.39
2023-05-01T00:33:29.949Z,65.19
2023-05-01T00:35:57.140Z,71.95
2023-05-01T00:38:24.788Z,71.11
2023-05-01T00:40:52.135Z,67.84
2023-05-01T00:43:19.166Z,64.78
2023-05-01T00:45:46.723Z,61.76
2023-05-01T00:48:15.305Z,56.93
2023-05-01T00:50:44.228Z,53.17
2023-05-01T00:53:11.848Z,53.06
2023-05-01T00:55:42.381Z,53.59
2023-05-01T00:58:10.574Z,54.37
2023-05-01T01:00:38.567Z,55.45
2023-05-01T01:03:06.498Z,56.58
2023-05-01T01:05:40.995Z,57.40
2023-05-01T01:08:23.051Z,58.42
2023-05-01T01:10:59.976Z,58.90
2023-05-01T01:13:37.179Z,59.75
2023-05-01T01:16:33.144Z,60.55
2023-05-01T01:19:26.578Z,61.15
2023-05-01T01:21:59.136Z,67.27
2023-05-01T01:24:58.066Z,73.91
2023-05-01T01:27:52.705Z,71.74
2023-05-01T01:30:26.194Z,67.10
2023-05-01T01:33:31.574Z,63.49
2023-05-01T01:36:07.945Z,61.01
2023-05-01T01:38:42.978Z,55.63
2023-05-01T01:41:21.854Z,52.45
2023-05-01T01:43:58.842Z,52.82
2023-05-01T01:46:27.232Z,53.88
2023-05-01T01:48:57.560Z,54.89
2023-05-01T01:51:27.311Z,55.83
2023-05-01T01:53:58.998Z,56.93
2023-05-01T01:56:28.543Z,57.90
2023-05-01T01:58:57.220Z,58.44
2023-05-01T02:01:25.860Z,59.00
2023-05-01T02:03:54.938Z,59.74
2023-05-01T02:06:24.570Z,60.31
2023-05-01T02:08:53.677Z,60.92
2023-05-01T02:11:23.690Z,65.36
2023-05-01T02:13:52.273Z,73.38
2023-05-01T02:16:21.149Z,71.55
2023-05-01T02:18:49.220Z,67.35
2023-05-01T02:21:16.897Z,63.93
2023-05-01T02:23:44.253Z,61.23
2023-05-01T02:26:17.302Z,56.51
2023-05-01T02:28:44.635Z,53.36
2023-05-01T02:31:11.861Z,53.70
2023-05-01T02:33:39.096Z,54.52
2023-05-01T02:36:06.740Z,55.19
2023-05-01T02:38:33.899Z,56.11
2023-05-01T02:41:02.267Z,57.03
2023-05-01T02:43:32.701Z,57.60
2023-05-01T02:46:00.841Z,58.35
2023-05-01T02:48:29.346Z,59.13
2023-05-01T02:50:57.935Z,59.82
2023-05-01T02:53:24.852Z,60.43
2023-05-01T02:55:51.946Z,61.01
2023-05-01T02:58:20.586Z,61.59
2023-05-01T03:00:50.286Z,66.21
2023-05-01T03:03:18.068Z,73.90
2023-05-01T03:05:45.416Z,72.02
2023-05-01T03:08:13.059Z,67.83
2023-05-01T03:10:42.976Z,64.51
2023-05-01T03:13:11.613Z,61.68
2023-05-01T03:15:39.580Z,57.74
2023-05-01T03:18:07.327Z,54.48
2023-05-01T03:20:34.379Z,54.71
2023-05-01T03:23:01.895Z,55.38
2023-05-01T03:25:28.856Z,55.93
2023-05-01T03:27:55.768Z,56.84
2023-05-01T03:30:22.944Z,57.56
2023-05-01T03:32:49.981Z,57.95
2023-05-01T03:35:17.071Z,58.16
2023-05-01T03:37:44.053Z,58.58
2023-05-01T03:40:13.982Z,59.11
2023-05-01T03:42:40.963Z,59.60
2023-05-01T03:45:09.148Z,59.98
2023-05-01T03:47:36.246Z,60.62
2023-05-01T03:50:03.748Z,61.33
2023-05-01T03:52:31.561Z,61.48
2023-05-01T03:54:58.418Z,65.70
2023-05-01T03:57:25.352Z,74.67
2023-05-01T03:59:52.279Z,74.12
2023-05-01T04:02:19.584Z,69.11
2023-05-01T04:04:46.911Z,64.74
2023-05-01T04:07:14.655Z,62.57
2023-05-01T04:09:41.893Z,57.25
2023-05-01T04:12:08.829Z,53.07
2023-05-01T04:14:36.424Z,52.35
2023-05-01T04:17:03.667Z,53.45
2023-05-01T04:19:30.810Z,53.27
2023-05-01T04:21:57.970Z,53.26
2023-05-01T04:24:25.212Z,53.90
2023-05-01T04:26:52.130Z,54.07
2023-05-01T04:29:19.066Z,55.44
2023-05-01T04:31:46.238Z,55.90
2023-05-01T04:34:13.170Z,55.60
2023-05-01T04:36:40.141Z,55.09
2023-05-01T04:39:07.250Z,55.22
2023-05-01T04:41:34.604Z,55.54
2023-05-01T04:44:01.512Z,55.39
2023-05-01T04:46:28.412Z,55.49
2023-05-01T04:48:55.566Z,55.39
2023-05-01T04:51:22.889Z,56.60
2023-05-01T04:53:49.723Z,56.66
2023-05-01T04:56:16.561Z,57.10
2023-05-01T04:58:43.828Z,56.95
2023-05-01T05:01:11.400Z,57.35
2023-05-01T05:03:38.468Z,57.32
2023-05-01T05:06:06.004Z,57.05
2023-05-01T05:08:32.899Z,57.82
2023-05-01T05:11:00.702Z,57.17
2023-05-01T05:13:29.136Z,57.39
2023-05-01T05:15:55.947Z,57.69
2023-05-01T05:18:23.022Z,57.54
2023-05-01T05:20:50.741Z,57.71
2023-05-01T05:23:17.623Z,57.08
2023-05-01T05:25:44.607Z,57.07
2023-05-01T05:28:11.459Z,56.90
2023-05-01T05:30:38.778Z,56.90
2023-05-01T05:33:09.272Z,56.35
2023-05-01T05:35:36.974Z,56.52
2023-05-01T05:38:04.218Z,56.43
2023-05-01T05:40:31.289Z,56.44
2023-05-01T05:42:58.342Z,56.00
2023-05-01T05:45:25.301Z,55.83
2023-05-01T05:47:52.254Z,55.02
2023-05-01T05:50:19.007Z,55.18
2023-05-01T05:52:46.214Z,55.29
2023-05-01T05:55:13.229Z,54.72
2023-05-01T05:57:40.068Z,53.95
2023-05-01T06:00:09.628Z,53.50
2023-05-01T06:02:37.187Z,52.88
2023-05-01T06:05:04.530Z,51.77
2023-05-01T06:07:31.633Z,51.52
2023-05-01T06:10:04.538Z,51.84
2023-05-01T06:12:32.229Z,51.33
2023-05-01T06:15:00.345Z,51.31
2023-05-01T06:17:27.537Z,50.66
2023-05-01T06:19:54.558Z,50.53
2023-05-01T06:22:21.792Z,50.25
2023-05-01T06:24:48.937Z,49.65
2023-05-01T06:27:19.748Z,49.34
2023-05-01T06:29:56.845Z,48.97
2023-05-01T06:32:24.223Z,47.95
2023-05-01T06:34:51.634Z,47.73
2023-05-01T06:37:18.614Z,47.14
2023-05-01T06:39:45.540Z,46.49
2023-05-01T06:42:16.382Z,46.63
2023-05-01T06:44:44.264Z,46.65
2023-05-01T06:47:11.263Z,46.36
2023-05-01T06:49:38.662Z,46.30
2023-05-01T06:52:05.881Z,45.92
2023-05-01T06:54:33.266Z,45.60
2023-05-01T06:57:00.183Z,45.52
2023-05-01T06:59:27.262Z,45.13
2023-05-01T07:01:54.078Z,45.12
2023-05-01T07:04:21.026Z,44.85
2023-05-01T07:06:48.325Z,44.28
2023-05-01T07:09:15.946Z,44.12
2023-05-01T07:11:43.316Z,43.94
2023-05-01T07:14:10.262Z,43.57
2023-05-01T07:16:37.091Z,42.91
2023-05-01T07:19:04.244Z,41.76
2023-05-01T07:21:32.594Z,42.02
2023-05-01T07:23:59.667Z,42.21
2023-05-01T07:26:27.877Z,40.92
2023-05-01T07:28:55.049Z,39.00
2023-05-01T07:31:23.173Z,39.44
2023-05-01T07:33:51.101Z,39.96
2023-05-01T07:36:20.792Z,39.89
2023-05-01T07:38:48.769Z,39.72
2023-05-01T07:41:15.594Z,39.00
2023-05-01T07:43:42.544Z,38.83
2023-05-01T07:46:09.713Z,38.81
2023-05-01T07:48:38.841Z,38.34
2023-05-01T07:51:06.247Z,38.01
2023-05-01T07:53:33.853Z,38.17
2023-05-01T07:56:10.609Z,37.29
2023-05-01T07:58:37.926Z,37.27
2023-05-01T08:01:06.621Z,37.42
2023-05-01T08:03:33.803Z,35.98
2023-05-01T08:06:01.253Z,36.29
2023-05-01T08:08:28.248Z,36.50
2023-05-01T08:10:55.193Z,36.18
2023-05-01T08:13:22.376Z,34.86
2023-05-01T08:15:50.002Z,35.14
2023-05-01T08:18:21.346Z,34.38
2023-05-01T08:20:48.954Z,34.09
2023-05-01T08:23:17.601Z,34.68
2023-05-01T08:25:51.201Z,34.53
2023-05-01T08:28:21.041Z,33.82
2023-05-01T08:30:49.555Z,33.35
2023-05-01T08:33:17.216Z,33.89
2023-05-01T08:35:44.097Z,33.17
2023-05-01T08:38:12.954Z,33.94
2023-05-01T08:40:44.467Z,33.52
2023-05-01T08:43:13.861Z,32.56
2023-05-01T08:45:43.258Z,32.08
2023-05-01T08:48:13.254Z,32.24
2023-05-01T08:50:45.772Z,32.63
2023-05-01T08:53:15.897Z,32.90
2023-05-01T08:55:47.823Z,32.51
2023-05-01T08:58:17.699Z,32.38
2023-05-01T09:00:46.935Z,32.77
2023-05-01T09:03:15.056Z,32.70
2023-05-01T09:05:46.928Z,32.63
2023-05-01T09:08:15.236Z,32.67
2023-05-01T09:10:46.747Z,31.91
2023-05-01T09:13:14.371Z,32.35
2023-05-01T09:15:42.316Z,31.59
2023-05-01T09:18:10.371Z,31.65
2023-05-01T09:20:38.509Z,31.86
2023-05-01T09:23:07.590Z,31.86
2023-05-01T09:25:34.605Z,31.67
2023-05-01T09:28:04.768Z,31.36
2023-05-01T09:30:34.988Z,31.33
2023-05-01T09:33:07.737Z,31.60
2023-05-01T09:40:03.727Z,32.53
2023-05-01T09:42:32.866Z,32.35
2023-05-01T09:45:02.070Z,32.50
2023-05-01T09:47:34.646Z,33.32
2023-05-01T09:50:01.962Z,32.52
2023-05-01T09:52:30.718Z,31.55
2023-05-01T09:55:17.770Z,32.12
2023-05-01T09:57:46.828Z,32.61
2023-05-01T10:00:15.787Z,32.50
2023-05-01T10:02:46.743Z,31.48
2023-05-01T10:05:14.409Z,31.48
2023-05-01T10:07:57.623Z,31.74
2023-05-01T10:10:28.503Z,32.45
2023-05-01T10:12:55.725Z,32.50
2023-05-01T10:15:26.746Z,32.46
2023-05-01T10:17:55.068Z,32.21
2023-05-01T10:20:22.675Z,32.43
2023-05-01T10:22:49.907Z,32.02
2023-05-01T10:25:18.321Z,32.31
2023-05-01T10:27:46.169Z,32.29
2023-05-01T10:30:13.522Z,32.12
2023-05-01T10:32:43.164Z,31.43
2023-05-01T10:35:20.011Z,30.72
2023-05-01T10:37:47.986Z,30.55
2023-05-01T10:40:40.371Z,30.86
2023-05-01T10:43:16.398Z,30.68
2023-05-01T10:45:44.763Z,30.16
2023-05-01T10:48:12.557Z,29.79
2023-05-01T10:51:10.266Z,29.16
2023-05-01T10:53:41.944Z,29.16
2023-05-01T10:56:30.882Z,28.87
2023-05-01T10:58:58.030Z,30.00
2023-05-01T11:01:40.167Z,29.35
2023-05-01T11:04:19.610Z,28.88
2023-05-01T11:07:02.526Z,28.62
2023-05-01T11:09:51.521Z,29.15
2023-05-01T11:12:46.947Z,28.65
2023-05-01T11:15:34.952Z,29.67
2023-05-01T11:18:04.129Z,30.11
2023-05-01T11:20:37.232Z,29.54
2023-05-01T11:23:04.481Z,29.93
2023-05-01T11:25:33.385Z,29.79
2023-05-01T11:28:02.664Z,29.68
2023-05-01T11:30:48.580Z,30.21
2023-05-01T11:33:23.057Z,30.00
2023-05-01T11:35:59.362Z,30.04
2023-05-01T11:38:26.486Z,29.49
2023-05-01T11:40:59.288Z,29.89
2023-05-01T11:43:27.360Z,29.67
2023-05-01T11:45:55.611Z,29.64
2023-05-01T11:48:22.971Z,29.69
2023-05-01T11:50:50.672Z,29.36
2023-05-01T11:53:18.020Z,29.63
2023-05-01T11:55:46.026Z,29.64
2023-05-01T11:58:13.667Z,29.18
2023-05-01T12:00:43.700Z,28.00
2023-05-01T12:03:12.550Z,28.61
2023-05-01T12:05:44.198Z,29.13
2023-05-01T12:08:21.804Z,28.42
2023-05-01T12:10:54.095Z,28.47
2023-05-01T12:16:06.404Z,28.67
2023-05-01T12:18:33.631Z,28.71
2023-05-01T12:21:01.765Z,28.52
2023-05-01T12:23:39.832Z,28.66
2023-05-01T12:26:23.983Z,28.65
2023-05-01T12:28:56.002Z,28.92
2023-05-01T12:31:25.283Z,29.10
2023-05-01T12:33:57.790Z,28.96
2023-05-01T12:36:28.500Z,28.82
2023-05-01T12:39:10.587Z,28.90
2023-05-01T12:41:46.278Z,27.98
2023-05-01T12:44:20.587Z,28.41
2023-05-01T12:46:59.956Z,27.71
2023-05-01T12:49:28.315Z,27.87
2023-05-01T12:51:57.109Z,27.64
2023-05-01T12:54:39.052Z,27.42
2023-05-01T12:57:18.323Z,27.62
2023-05-01T12:59:46.965Z,27.57
2023-05-01T13:02:16.414Z,27.89
2023-05-01T13:04:49.555Z,27.29
2023-05-01T13:07:19.205Z,26.34
2023-05-01T13:10:00.908Z,26.72
2023-05-01T13:12:29.270Z,26.54
2023-05-01T13:14:57.070Z,26.97
2023-05-01T13:17:29.002Z,26.60
2023-05-01T13:20:05.376Z,26.58
2023-05-01T13:22:36.896Z,26.91
2023-05-01T13:25:06.804Z,26.44
2023-05-01T13:27:34.319Z,26.12
2023-05-01T13:30:02.822Z,27.03
2023-05-01T13:32:30.118Z,26.79
2023-05-01T13:35:01.628Z,26.98
2023-05-01T13:37:29.736Z,26.45
2023-05-01T13:40:01.517Z,26.51
2023-05-01T13:42:28.645Z,26.57
2023-05-01T13:44:58.424Z,26.16
2023-05-01T13:47:27.287Z,26.51
2023-05-01T13:50:04.366Z,26.68
2023-05-01T13:52:47.012Z,27.28
2023-05-01T13:55:15.961Z,27.45
2023-05-01T13:57:43.654Z,27.30
2023-05-01T14:00:17.964Z,27.48
2023-05-01T14:02:48.826Z,27.78
2023-05-01T14:05:17.010Z,27.97
2023-05-01T14:07:58.773Z,28.58
2023-05-01T14:10:28.966Z,28.97
2023-05-01T14:12:58.338Z,29.88
2023-05-01T14:15:25.918Z,29.65
2023-05-01T14:17:53.486Z,29.89
2023-05-01T14:20:20.722Z,29.91
2023-05-01T14:22:51.933Z,30.06
2023-05-01T14:25:35.006Z,30.11
2023-05-01T14:28:06.320Z,30.09
2023-05-01T14:30:38.852Z,30.56
2023-05-01T14:33:11.441Z,30.13
2023-05-01T14:35:49.055Z,30.07
2023-05-01T14:38:17.558Z,30.17
2023-05-01T14:40:45.800Z,30.22
2023-05-01T14:43:22.675Z,30.53
2023-05-01T14:45:50.439Z,30.43
2023-05-01T14:48:35.462Z,30.84
2023-05-01T14:51:06.649Z,30.64
2023-05-01T14:53:34.073Z,30.45
2023-05-01T14:56:00.989Z,30.82
2023-05-01T14:58:27.948Z,30.64
2023-05-01T15:00:54.774Z,30.60
2023-05-01T15:03:22.474Z,30.44
2023-05-01T15:05:49.491Z,30.56
2023-05-01T15:08:17.077Z,31.00
2023-05-01T15:10:45.630Z,30.88
2023-05-01T15:13:13.150Z,30.78
2023-05-01T15:15:40.116Z,30.81
2023-05-01T15:18:07.744Z,30.68
2023-05-01T15:20:35.166Z,30.72
2023-05-01T15:23:02.084Z,30.93
2023-05-01T15:25:29.678Z,30.97
2023-05-01T15:27:57.409Z,30.85
2023-05-01T15:30:24.335Z,30.88
2023-05-01T15:32:52.057Z,30.80
2023-05-01T15:35:19.363Z,30.73
2023-05-01T15:37:46.435Z,30.69
2023-05-01T15:40:13.681Z,30.96
2023-05-01T15:42:41.656Z,30.60
2023-05-01T15:45:10.178Z,30.71
2023-05-01T15:47:37.308Z,30.81
2023-05-01T15:50:04.820Z,30.81
2023-05-01T15:52:31.749Z,30.80
2023-05-01T15:54:58.700Z,30.92
2023-05-01T15:57:25.647Z,30.77
2023-05-01T15:59:54.242Z,30.71
2023-05-01T16:02:22.168Z,30.65
2023-05-01T16:04:49.746Z,30.66
2023-05-01T16:07:16.776Z,30.89
2023-05-01T16:09:44.507Z,30.87
2023-05-01T16:12:12.177Z,31.02
2023-05-01T16:14:42.865Z,30.89
2023-05-01T16:17:09.952Z,30.85
2023-05-01T16:19:37.532Z,30.82
2023-05-01T16:22:05.881Z,30.76
2023-05-01T16:24:34.172Z,30.88
2023-05-01T16:27:01.125Z,30.89
2023-05-01T16:29:28.064Z,30.89
2023-05-01T16:31:55.032Z,30.92
2023-05-01T16:34:25.733Z,30.87
2023-05-01T16:36:53.157Z,31.01
2023-05-01T16:39:22.477Z,30.92
2023-05-01T16:41:51.694Z,31.09
2023-05-01T16:44:22.023Z,30.90
2023-05-01T16:46:56.318Z,30.90
2023-05-01T16:49:24.838Z,31.04
2023-05-01T16:51:56.874Z,31.15
2023-05-01T16:54:25.496Z,31.19
2023-05-01T16:56:52.490Z,31.34
2023-05-01T16:59:19.881Z,31.41
2023-05-01T17:01:46.920Z,31.70
2023-05-01T17:04:15.427Z,31.69
2023-05-01T17:06:42.468Z,31.96
2023-05-01T17:09:09.474Z,32.10
2023-05-01T17:11:36.726Z,32.23
2023-05-01T17:14:04.062Z,32.45
2023-05-01T17:16:32.979Z,32.56
2023-05-01T17:18:59.990Z,32.80
2023-05-01T17:21:28.583Z,32.86
2023-05-01T17:23:55.543Z,33.10
2023-05-01T17:26:23.306Z,33.09
2023-05-01T17:28:51.063Z,33.26
2023-05-01T17:31:19.935Z,33.42
2023-05-01T17:33:49.313Z,33.60
2023-05-01T17:36:16.682Z,33.57
2023-05-01T17:38:43.965Z,33.88
2023-05-01T17:41:10.882Z,34.19
2023-05-01T17:43:38.148Z,34.34
2023-05-01T17:46:07.038Z,34.49
2023-05-01T17:48:34.268Z,34.53
2023-05-01T17:51:01.715Z,34.65
2023-05-01T17:53:29.203Z,34.96
2023-05-01T17:55:56.328Z,34.62
2023-05-01T17:58:23.256Z,34.82
2023-05-01T18:00:50.620Z,34.92
2023-05-01T18:03:17.873Z,34.88
2023-05-01T18:05:45.544Z,35.01
2023-05-01T18:08:12.505Z,35.14
2023-05-01T18:10:39.560Z,35.16
2023-05-01T18:13:06.557Z,35.23
2023-05-01T18:15:33.638Z,35.27
2023-05-01T18:18:00.633Z,35.27
2023-05-01T18:20:29.230Z,35.51
2023-05-01T18:22:56.504Z,35.62
2023-05-01T18:25:23.744Z,35.76
2023-05-01T18:27:51.594Z,35.86
2023-05-01T18:30:18.878Z,35.95
2023-05-01T18:32:48.365Z,35.80
2023-05-01T18:35:19.303Z,35.94
2023-05-01T18:37:47.694Z,35.87
2023-05-01T18:40:15.466Z,36.21
2023-05-01T18:42:43.162Z,36.25
2023-05-01T18:45:10.884Z,36.27
2023-05-01T18:47:38.257Z,36.29
2023-05-01T18:50:06.601Z,36.50
2023-05-01T18:52:33.756Z,36.58
2023-05-01T18:55:01.187Z,36.70
2023-05-01T18:57:29.449Z,36.70
2023-05-01T18:59:56.747Z,36.58
2023-05-01T19:02:24.108Z,36.65
2023-05-01T19:05:02.176Z,36.79
2023-05-01T19:07:40.451Z,37.00
2023-05-01T19:10:15.242Z,37.03
2023-05-01T19:12:55.054Z,36.93
2023-05-01T19:15:36.318Z,36.85
2023-05-01T19:18:07.990Z,37.00
2023-05-01T19:20:35.108Z,37.11
2023-05-01T19:23:02.116Z,37.14
2023-05-01T19:25:30.648Z,37.02
2023-05-01T19:27:58.089Z,37.35
2023-05-01T19:30:25.347Z,37.40
2023-05-01T19:35:39.273Z,37.38
2023-05-01T19:48:54.364Z,37.65
2023-05-01T19:51:24.220Z,37.95
2023-05-01T19:54:05.554Z,38.21
2023-05-01T19:59:19.060Z,38.39
2023-05-01T20:01:48.654Z,38.45
2023-05-01T20:04:16.046Z,38.75
2023-05-01T20:06:53.634Z,38.85
2023-05-01T20:09:22.756Z,38.99
2023-05-01T20:14:42.320Z,39.36
2023-05-01T20:17:10.056Z,39.43
2023-05-01T20:19:39.822Z,39.62
2023-05-01T20:22:08.283Z,39.74
2023-05-01T20:24:36.359Z,40.11
2023-05-01T20:29:54.483Z,40.10
2023-05-01T20:32:23.689Z,40.14
2023-05-01T20:34:50.869Z,40.57
2023-05-01T20:37:19.520Z,40.65
2023-05-01T20:39:46.558Z,40.68
2023-05-01T20:42:13.493Z,40.86
2023-05-01T20:44:40.441Z,41.06
2023-05-01T20:47:07.467Z,41.20
2023-05-01T20:49:34.311Z,41.27
2023-05-01T20:52:01.404Z,41.36
2023-05-01T20:54:32.632Z,41.72
2023-05-01T20:57:00.476Z,41.72
2023-05-01T20:59:27.305Z,42.19
2023-05-01T21:01:54.612Z,43.20
2023-05-01T21:04:21.920Z,43.72
2023-05-01T21:06:49.226Z,43.94
2023-05-01T21:09:16.921Z,44.35
2023-05-01T21:11:43.868Z,44.62
2023-05-01T21:14:11.827Z,44.90
2023-05-01T21:16:39.873Z,45.10
2023-05-01T21:19:07.613Z,45.56
2023-05-01T21:21:37.289Z,46.11
2023-05-01T21:24:05.751Z,46.71
2023-05-01T21:26:32.801Z,47.18
2023-05-01T21:29:00.117Z,47.88
2023-05-01T21:31:31.226Z,47.98
2023-05-01T21:34:04.267Z,48.23
2023-05-01T21:36:31.731Z,48.61
2023-05-01T21:39:10.269Z,49.10
2023-05-01T21:41:38.089Z,49.32
2023-05-01T21:44:05.453Z,49.59
2023-05-01T21:46:32.797Z,50.26
2023-05-01T21:48:59.952Z,49.79
2023-05-01T21:51:32.628Z,49.52
2023-05-01T21:54:04.807Z,49.90
2023-05-01T21:56:33.054Z,49.54
2023-05-01T21:59:05.953Z,49.57
2023-05-01T22:01:33.128Z,49.55
2023-05-01T22:04:00.504Z,50.11
2023-05-01T22:06:28.706Z,50.79
2023-05-01T22:08:55.908Z,51.03
2023-05-01T22:11:24.468Z,50.98
2023-05-01T22:13:51.320Z,51.17
2023-05-01T22:16:18.402Z,51.32
2023-05-01T22:18:49.376Z,51.64
2023-05-01T22:21:17.475Z,51.38
2023-05-01T22:23:44.296Z,51.28
2023-05-01T22:26:11.437Z,50.78
2023-05-01T22:28:38.386Z,49.70
2023-05-01T22:31:05.422Z,49.34
2023-05-01T22:33:32.271Z,49.00
2023-05-01T22:35:59.209Z,48.98
2023-05-01T22:38:26.400Z,48.78
2023-05-01T22:40:53.433Z,48.75
2023-05-01T22:43:20.465Z,48.67
2023-05-01T22:45:47.398Z,48.49
2023-05-01T22:48:14.711Z,48.38
2023-05-01T22:50:43.106Z,48.81
2023-05-01T22:53:10.269Z,49.01
2023-05-01T22:55:38.247Z,49.38
2023-05-01T22:58:05.195Z,49.59
2023-05-01T23:00:38.297Z,49.84
2023-05-01T23:03:08.700Z,50.15
2023-05-01T23:05:44.053Z,50.36
2023-05-01T23:08:19.177Z,50.58
2023-05-01T23:10:51.638Z,50.77
2023-05-01T23:13:24.956Z,50.91
2023-05-01T23:15:52.646Z,51.23
2023-05-01T23:18:25.585Z,51.54
2023-05-01T23:20:53.114Z,51.66
2023-05-01T23:23:21.426Z,51.87
2023-05-01T23:25:50.721Z,51.82
2023-05-01T23:28:23.091Z,52.44
2023-05-01T23:30:55.863Z,53.35
2023-05-01T23:33:27.506Z,53.76
2023-05-01T23:35:54.447Z,54.05
2023-05-01T23:38:21.389Z,54.27
2023-05-01T23:40:50.076Z,54.42
2023-05-01T23:43:17.428Z,54.57
2023-05-01T23:45:44.783Z,54.62
2023-05-01T23:48:12.118Z,54.94
2023-05-01T23:50:40.309Z,55.06
2023-05-01T23:53:08.835Z,55.79
2023-05-01T23:55:37.268Z,56.32
2023-05-01T23:58:05.100Z,55.96
